Time;durP1;ratioP1;P1;durP2;ratioP2;P2;SDS_P1;SDS_P2;PMS_P1;PMS_P2;Temp;Humidity;BMP_temperature;BMP_pressure;BME280_temperature;BME280_humidity;BME280_pressure;Samples;Min_cycle;Max_cycle;Signal;HPM_P1;HPM_P2
2022/10/06 00:00:41;;;;;;;2.20;1.80;;;20.40;68.30;21.60;101434.00;;;;4969250;28;20178;-48
2022/10/06 00:03:06;;;;;;;1.73;1.63;;;20.40;68.30;21.60;101423.00;;;;4972489;28;20173;-46
2022/10/06 00:05:32;;;;;;;2.13;1.80;;;20.40;68.40;21.60;101423.00;;;;4971873;28;20204;-44
2022/10/06 00:07:59;;;;;;;1.80;1.70;;;20.40;68.40;21.60;101423.00;;;;4972481;28;20224;-44
2022/10/06 00:10:26;;;;;;;1.87;1.67;;;20.40;68.30;21.50;101431.00;;;;4971036;28;20663;-45
2022/10/06 00:12:52;;;;;;;1.70;1.60;;;20.30;68.20;21.60;101421.00;;;;4971953;28;20192;-44
2022/10/06 00:15:22;;;;;;;1.73;1.63;;;20.30;68.20;21.50;101421.00;;;;4972183;28;20181;-44
2022/10/06 00:17:48;;;;;;;2.17;1.97;;;20.30;68.20;21.50;101433.00;;;;4972440;28;20256;-44
2022/10/06 00:20:14;;;;;;;1.60;1.50;;;20.30;68.20;21.50;101444.00;;;;4972114;28;20271;-44
2022/10/06 00:22:42;;;;;;;1.70;1.60;;;20.30;68.20;21.50;101443.00;;;;4972116;28;20181;-45
2022/10/06 00:25:09;;;;;;;1.70;1.60;;;20.30;68.20;21.50;101441.00;;;;4971495;28;20538;-46
2022/10/06 00:27:43;;;;;;;2.70;1.70;;;20.30;68.20;21.50;101445.00;;;;4970446;28;20192;-45
2022/10/06 00:30:14;;;;;;;1.60;1.50;;;20.30;68.20;21.50;101430.00;;;;4971711;28;20184;-45
2022/10/06 00:32:40;;;;;;;1.90;1.70;;;20.30;68.20;21.50;101432.00;;;;4972012;28;20665;-45
2022/10/06 00:35:06;;;;;;;1.77;1.50;;;20.30;68.20;21.50;101435.00;;;;4971686;28;20203;-44
2022/10/06 00:37:36;;;;;;;1.83;1.50;;;20.30;68.20;21.50;101442.00;;;;4971601;28;20193;-45
2022/10/06 00:40:08;;;;;;;1.60;1.50;;;20.20;68.20;21.40;101448.00;;;;4971636;28;20701;-44
2022/10/06 00:42:33;;;;;;;1.67;1.57;;;20.30;68.30;21.40;101453.00;;;;4971672;28;20154;-44
2022/10/06 00:45:01;;;;;;;1.70;1.60;;;20.20;68.20;21.40;101455.00;;;;4971821;28;20766;-46
2022/10/06 00:47:29;;;;;;;2.00;1.60;;;20.20;68.20;21.40;101457.00;;;;4970363;28;20258;-45
2022/10/06 00:49:55;;;;;;;1.97;1.50;;;20.20;68.20;21.40;101451.00;;;;4971689;28;20189;-45
2022/10/06 00:52:24;;;;;;;1.60;1.50;;;20.20;68.10;21.40;101456.00;;;;4971532;28;20185;-46
2022/10/06 00:54:50;;;;;;;1.57;1.47;;;20.20;68.20;21.40;101459.00;;;;4971309;28;20180;-44
2022/10/06 00:57:17;;;;;;;2.27;1.80;;;20.20;68.10;21.40;101465.00;;;;4971192;28;20318;-44
2022/10/06 00:59:43;;;;;;;1.67;1.50;;;20.20;68.20;21.40;101468.00;;;;4970596;28;20183;-45
2022/10/06 01:02:23;;;;;;;1.60;1.50;;;20.20;68.10;21.40;101465.00;;;;4971293;28;20188;-43
2022/10/06 01:04:54;;;;;;;1.60;1.50;;;20.20;68.20;21.30;101471.00;;;;4971260;28;20196;-45
2022/10/06 01:07:20;;;;;;;1.60;1.50;;;20.20;68.20;21.30;101479.00;;;;4954333;28;20197;-46
2022/10/06 01:09:47;;;;;;;1.60;1.50;;;20.20;68.20;21.30;101478.00;;;;4970012;28;20670;-43
2022/10/06 01:12:12;;;;;;;1.50;1.40;;;20.20;68.20;21.30;101485.00;;;;4953296;28;20177;-44
2022/10/06 01:14:38;;;;;;;1.73;1.60;;;20.20;68.20;21.30;101480.00;;;;4953503;28;20181;-44
2022/10/06 01:17:51;;;;;;;1.60;1.40;;;20.10;68.00;21.30;101487.00;;;;4969685;28;20290;-46
2022/10/06 01:20:17;;;;;;;1.43;1.33;;;20.20;68.20;21.30;101495.00;;;;4971922;28;20219;-43
2022/10/06 01:22:58;;;;;;;1.73;1.50;;;20.10;68.10;21.30;101497.00;;;;4953838;28;20226;-46
2022/10/06 01:25:24;;;;;;;1.40;1.30;;;20.10;68.10;21.30;101507.00;;;;4955290;28;20546;-44
2022/10/06 01:27:52;;;;;;;1.30;1.20;;;20.10;68.10;21.20;101513.00;;;;4953585;28;20200;-45
2022/10/06 01:30:25;;;;;;;1.27;1.20;;;20.10;68.20;21.20;101506.00;;;;4953470;28;20184;-46
2022/10/06 01:32:51;;;;;;;1.83;1.50;;;20.10;68.20;21.20;101508.00;;;;4953804;28;20193;-46
2022/10/06 01:35:17;;;;;;;1.53;1.43;;;20.10;68.20;21.20;101511.00;;;;4969251;28;20215;-44
2022/10/06 01:37:43;;;;;;;2.10;1.40;;;20.10;68.20;21.20;101505.00;;;;4970560;28;20531;-45
2022/10/06 01:40:09;;;;;;;1.37;1.27;;;20.10;68.20;21.20;101509.00;;;;4970640;28;20186;-46
2022/10/06 01:42:35;;;;;;;1.53;1.43;;;20.00;68.00;21.20;101515.00;;;;4970501;28;20208;-46
2022/10/06 01:45:01;;;;;;;1.43;1.33;;;20.10;68.30;21.20;101523.00;;;;4970755;28;20195;-44
2022/10/06 01:47:27;;;;;;;1.60;1.50;;;20.00;68.20;21.20;101526.00;;;;4970680;28;20673;-46
2022/10/06 01:49:52;;;;;;;1.90;1.60;;;20.00;68.20;21.20;101519.00;;;;4970545;28;20235;-44
2022/10/06 01:52:19;;;;;;;2.40;1.50;;;20.00;68.30;21.10;101527.00;;;;4969162;28;20179;-47
2022/10/06 01:54:45;;;;;;;1.43;1.33;;;20.00;68.20;20.90;101531.00;;;;4969960;28;20310;-46
2022/10/06 01:57:10;;;;;;;1.67;1.53;;;20.00;68.30;21.10;101531.00;;;;4969868;28;20202;-44
2022/10/06 01:59:36;;;;;;;1.20;1.20;;;20.00;68.20;21.10;101541.00;;;;4970141;28;20686;-45
2022/10/06 02:02:02;;;;;;;1.60;1.43;;;19.90;68.20;21.10;101545.00;;;;4970048;28;20652;-44
2022/10/06 02:04:28;;;;;;;1.73;1.60;;;20.00;68.30;21.10;101540.00;;;;4969949;28;20177;-47
2022/10/06 02:06:54;;;;;;;1.93;1.53;;;20.00;68.30;21.10;101541.00;;;;4969997;28;20278;-44
2022/10/06 02:09:21;;;;;;;1.47;1.30;;;20.00;68.30;21.10;101552.00;;;;4970213;28;20293;-44
2022/10/06 02:11:47;;;;;;;2.33;1.50;;;20.00;68.40;21.10;101561.00;;;;4970171;28;20179;-47
2022/10/06 02:14:12;;;;;;;1.83;1.40;;;20.00;68.30;21.10;101560.00;;;;4970099;28;20253;-46
2022/10/06 02:16:39;;;;;;;1.77;1.00;;;19.90;68.20;21.10;101562.00;;;;4969856;28;20196;-45
2022/10/06 02:19:05;;;;;;;1.50;1.40;;;19.90;68.30;21.00;101561.00;;;;4969726;28;20237;-46
2022/10/06 02:21:31;;;;;;;1.43;1.33;;;19.90;68.30;21.00;101576.00;;;;4970102;28;20187;-46
2022/10/06 02:23:56;;;;;;;1.47;1.37;;;19.90;68.20;21.00;101577.00;;;;4969604;28;20186;-47
2022/10/06 02:26:22;;;;;;;1.83;1.60;;;19.90;68.30;21.00;101578.00;;;;4970067;28;20201;-45
2022/10/06 02:28:51;;;;;;;1.17;1.17;;;19.90;68.40;21.00;101580.00;;;;4969230;28;20198;-44
2022/10/06 02:31:16;;;;;;;1.60;1.50;;;19.90;68.40;21.00;101578.00;;;;4969876;28;20251;-46
2022/10/06 02:33:43;;;;;;;4.43;1.70;;;19.90;68.40;21.00;101577.00;;;;4969446;28;20177;-44
2022/10/06 02:36:11;;;;;;;1.83;1.40;;;19.90;68.50;21.00;101593.00;;;;4969740;28;20229;-46
2022/10/06 02:38:37;;;;;;;1.50;1.33;;;19.90;68.60;21.00;101590.00;;;;4969666;28;20202;-46
2022/10/06 02:41:03;;;;;;;1.63;1.50;;;19.90;68.50;21.00;101603.00;;;;4968335;28;20182;-44
2022/10/06 02:43:30;;;;;;;2.53;1.50;;;19.90;68.60;21.00;101605.00;;;;4968947;28;20177;-45
2022/10/06 02:46:07;;;;;;;1.50;1.40;;;19.90;68.60;21.00;101604.00;;;;4969665;28;20224;-45
2022/10/06 02:48:33;;;;;;;1.30;1.20;;;19.90;68.60;20.90;101614.00;;;;4969393;28;20198;-45
2022/10/06 02:51:01;;;;;;;2.10;1.50;;;19.80;68.50;20.90;101604.00;;;;4969297;28;20175;-49
2022/10/06 02:53:28;;;;;;;1.60;1.50;;;19.90;69.40;20.90;101614.00;;;;4969486;28;20206;-45
2022/10/06 02:56:04;;;;;;;2.17;1.70;;;19.80;68.40;20.90;101627.00;;;;4969310;28;20199;-47
2022/10/06 02:58:30;;;;;;;1.90;1.63;;;19.80;68.50;20.90;101634.00;;;;4969559;28;20244;-44
2022/10/06 03:01:06;;;;;;;2.17;1.47;;;19.80;68.50;20.90;101627.00;;;;4969466;28;20588;-47
2022/10/06 03:03:33;;;;;;;1.77;1.57;;;19.80;68.50;20.90;101634.00;;;;4969136;28;20195;-45
2022/10/06 03:06:01;;;;;;;2.53;1.53;;;19.80;68.50;20.90;101643.00;;;;4970387;28;20204;-45
2022/10/06 03:08:27;;;;;;;2.23;1.47;;;19.80;68.50;20.90;101636.00;;;;4969384;28;20609;-47
2022/10/06 03:11:00;;;;;;;1.93;1.60;;;19.80;68.50;20.90;101647.00;;;;4968528;28;20193;-44
2022/10/06 03:13:26;;;;;;;2.30;1.50;;;19.80;68.40;20.90;101654.00;;;;4968135;28;20166;-45
2022/10/06 03:15:52;;;;;;;2.70;1.70;;;19.80;68.50;20.90;101658.00;;;;4969549;28;20228;-47
2022/10/06 03:18:18;;;;;;;1.50;1.40;;;19.80;68.40;20.80;101657.00;;;;4969695;28;20209;-45
2022/10/06 03:20:43;;;;;;;1.60;1.50;;;19.80;68.40;20.80;101652.00;;;;4968919;28;20771;-45
2022/10/06 03:23:09;;;;;;;2.17;1.70;;;19.80;68.30;20.80;101665.00;;;;4969034;28;20186;-45
2022/10/06 03:25:35;;;;;;;2.40;1.70;;;19.80;68.40;20.80;101667.00;;;;4968829;28;20201;-45
2022/10/06 03:28:00;;;;;;;6.33;1.53;;;19.80;68.40;20.80;101663.00;;;;4968975;28;20252;-50
2022/10/06 03:30:26;;;;;;;2.40;1.90;;;19.80;68.40;20.80;101669.00;;;;4969271;28;20640;-46
2022/10/06 03:32:52;;;;;;;3.50;1.70;;;19.80;68.30;20.80;101676.00;;;;4968983;28;20179;-43
2022/10/06 03:35:18;;;;;;;4.10;1.77;;;19.80;68.30;20.80;101680.00;;;;4969013;28;20177;-45
2022/10/06 03:37:43;;;;;;;2.53;1.50;;;19.80;68.40;20.80;101677.00;;;;4972579;28;20698;-44
2022/10/06 03:40:09;;;;;;;4.60;1.87;;;19.80;68.40;20.80;101682.00;;;;4973320;28;20292;-44
2022/10/06 03:42:35;;;;;;;6.47;2.10;;;19.80;68.40;20.80;101701.00;;;;4973305;28;20249;-46
2022/10/06 03:45:00;;;;;;;3.80;1.80;;;19.80;68.30;20.80;101689.00;;;;4973001;28;20180;-46
2022/10/06 03:47:29;;;;;;;2.83;1.73;;;19.70;68.20;20.70;101713.00;;;;4972927;28;20239;-45
2022/10/06 03:49:55;;;;;;;2.47;1.80;;;19.70;68.30;20.80;101718.00;;;;4973510;28;20241;-44
2022/10/06 03:52:21;;;;;;;4.97;2.10;;;19.80;68.40;20.70;101716.00;;;;4973664;28;20169;-45
2022/10/06 03:54:46;;;;;;;3.03;1.90;;;19.70;68.20;20.70;101721.00;;;;4973319;28;20180;-46
2022/10/06 03:57:12;;;;;;;6.07;1.80;;;19.70;68.30;20.70;101714.00;;;;4973349;28;20215;-45
2022/10/06 03:59:38;;;;;;;4.20;1.83;;;19.70;68.30;20.70;101714.00;;;;4973493;28;20557;-44
2022/10/06 04:02:04;;;;;;;3.30;1.77;;;19.70;68.30;20.70;101732.00;;;;4973364;28;20170;-45
2022/10/06 04:04:30;;;;;;;3.13;1.80;;;19.70;68.30;20.70;101746.00;;;;4973019;28;20173;-44
2022/10/06 04:06:55;;;;;;;5.30;1.90;;;19.70;68.40;20.70;101740.00;;;;4973539;28;20681;-46
2022/10/06 04:09:21;;;;;;;1.57;1.47;;;19.60;68.20;20.70;101755.00;;;;4973042;28;20207;-45
2022/10/06 04:11:47;;;;;;;1.77;1.67;;;19.60;68.20;20.70;101753.00;;;;4971526;28;20750;-45
2022/10/06 04:14:14;;;;;;;2.67;1.70;;;19.60;68.20;20.60;101749.00;;;;4971418;28;20181;-44
2022/10/06 04:16:42;;;;;;;2.20;1.53;;;19.60;68.20;20.60;101743.00;;;;4972816;28;20229;-45
2022/10/06 04:19:10;;;;;;;4.93;1.80;;;19.60;68.30;20.60;101763.00;;;;4971197;28;20181;-46
2022/10/06 04:21:36;;;;;;;2.67;1.57;;;19.60;68.60;20.60;101767.00;;;;4971941;28;20187;-47
2022/10/06 04:24:02;;;;;;;2.90;1.67;;;19.60;68.20;20.60;101771.00;;;;4971346;28;20517;-45
2022/10/06 04:26:37;;;;;;;1.60;1.50;;;19.60;68.20;20.60;101778.00;;;;4971492;28;20214;-44
2022/10/06 04:29:02;;;;;;;2.73;1.70;;;19.60;68.20;20.60;101774.00;;;;4972232;28;20200;-45
2022/10/06 04:31:31;;;;;;;5.00;1.70;;;19.50;68.20;20.60;101775.00;;;;4972612;28;20169;-46
2022/10/06 04:33:59;;;;;;;2.07;1.63;;;19.60;68.20;20.60;101786.00;;;;4972369;28;20256;-45
2022/10/06 04:36:26;;;;;;;2.57;1.80;;;19.50;68.10;20.60;101782.00;;;;4972652;28;20227;-44
2022/10/06 04:38:57;;;;;;;3.00;1.57;;;19.50;68.10;20.60;101791.00;;;;4972513;28;20264;-46
2022/10/06 04:41:24;;;;;;;1.80;1.70;;;19.50;68.20;20.50;101796.00;;;;4972533;28;20276;-46
2022/10/06 04:43:50;;;;;;;1.97;1.60;;;19.50;68.20;20.50;101799.00;;;;4972417;28;20800;-47
2022/10/06 04:46:16;;;;;;;2.70;1.53;;;19.50;68.10;20.50;101799.00;;;;4972321;28;20280;-46
2022/10/06 04:48:42;;;;;;;2.70;1.83;;;19.50;68.10;20.50;101805.00;;;;4971031;28;20232;-45
2022/10/06 04:51:12;;;;;;;3.70;1.70;;;19.50;68.20;20.50;101812.00;;;;4973453;28;20201;-44
2022/10/06 04:53:38;;;;;;;3.17;1.90;;;19.50;68.20;20.50;101814.00;;;;4969127;28;20244;-46
2022/10/06 04:56:12;;;;;;;3.07;1.50;;;19.50;68.20;20.50;101823.00;;;;4971693;28;20196;-45
2022/10/06 04:58:40;;;;;;;2.83;1.53;;;19.50;68.10;20.50;101824.00;;;;4971919;28;20170;-44
2022/10/06 05:01:16;;;;;;;1.70;1.53;;;19.50;68.10;20.50;101828.00;;;;4971977;28;20178;-47
2022/10/06 05:03:44;;;;;;;3.97;1.60;;;19.50;68.20;20.50;101828.00;;;;4971878;28;20165;-44
2022/10/06 05:06:19;;;;;;;2.07;1.57;;;19.40;68.00;20.50;101832.00;;;;4971412;28;20194;-44
2022/10/06 05:08:49;;;;;;;2.40;1.63;;;19.40;68.00;20.50;101832.00;;;;4971912;28;20224;-45
2022/10/06 05:11:15;;;;;;;2.73;1.63;;;19.40;68.10;20.50;101836.00;;;;4970122;28;20157;-45
2022/10/06 05:13:42;;;;;;;2.10;1.60;;;19.40;68.10;20.50;101825.00;;;;4971346;28;20235;-45
2022/10/06 05:16:10;;;;;;;1.77;1.40;;;19.40;68.00;20.50;101838.00;;;;4971251;28;20189;-45
2022/10/06 05:18:36;;;;;;;1.83;1.43;;;19.40;68.00;20.50;101844.00;;;;4971039;28;20177;-47
2022/10/06 05:21:05;;;;;;;4.03;1.80;;;19.40;68.00;20.40;101855.00;;;;4970477;28;20189;-45
2022/10/06 05:23:33;;;;;;;5.07;2.07;;;19.40;68.00;20.40;101854.00;;;;4971053;28;20677;-45
2022/10/06 05:25:59;;;;;;;3.50;1.70;;;19.40;68.10;20.40;101869.00;;;;4971046;28;20200;-44
2022/10/06 05:28:25;;;;;;;3.00;1.80;;;19.40;68.10;20.40;101862.00;;;;4971594;28;20331;-45
2022/10/06 05:31:05;;;;;;;3.40;1.70;;;19.40;68.00;20.40;101863.00;;;;4970810;28;20168;-46
2022/10/06 05:33:33;;;;;;;3.67;1.80;;;19.40;68.00;20.40;101875.00;;;;4971243;28;20639;-44
2022/10/06 05:36:08;;;;;;;4.40;1.90;;;19.30;67.90;20.40;101876.00;;;;4970668;28;20185;-45
2022/10/06 05:38:34;;;;;;;4.30;2.00;;;19.30;67.90;20.40;101885.00;;;;4971270;28;20168;-45
2022/10/06 05:41:09;;;;;;;4.47;2.03;;;19.30;67.90;20.30;101890.00;;;;4971242;28;20719;-45
2022/10/06 05:43:36;;;;;;;3.10;2.07;;;19.30;67.90;20.30;101903.00;;;;4971259;28;20168;-44
2022/10/06 05:46:04;;;;;;;4.47;2.10;;;19.30;67.90;20.30;101899.00;;;;4971034;28;20197;-44
2022/10/06 05:48:30;;;;;;;2.47;1.87;;;19.30;67.90;20.30;101899.00;;;;4970999;28;20572;-44
2022/10/06 05:51:01;;;;;;;2.87;1.87;;;19.30;67.90;20.30;101899.00;;;;4954053;28;20178;-43
2022/10/06 05:53:28;;;;;;;2.30;1.90;;;19.30;67.80;20.30;101915.00;;;;4971046;28;20173;-47
2022/10/06 05:56:08;;;;;;;2.80;2.00;;;19.30;67.80;20.30;101914.00;;;;4971340;28;20272;-42
2022/10/06 05:58:36;;;;;;;4.17;1.70;;;19.20;67.70;20.30;101911.00;;;;4969940;28;20762;-45
2022/10/06 06:01:33;;;;;;;4.23;1.97;;;19.20;67.50;20.20;101923.00;;;;4970487;28;20700;-46
2022/10/06 06:04:05;;;;;;;2.87;1.90;;;19.20;67.40;20.20;101932.00;;;;4969024;28;20515;-45
2022/10/06 06:06:41;;;;;;;3.30;1.80;;;19.30;67.60;20.20;101936.00;;;;4969331;28;20216;-45
2022/10/06 06:09:15;;;;;;;2.10;1.80;;;19.20;67.60;20.20;101935.00;;;;4969170;28;20292;-45
2022/10/06 06:11:43;;;;;;;3.93;1.83;;;19.30;67.50;20.20;101939.00;;;;4970674;28;20830;-46
2022/10/06 06:14:14;;;;;;;3.93;2.13;;;19.20;67.40;20.20;101940.00;;;;4970563;28;20184;-45
2022/10/06 06:16:40;;;;;;;3.17;1.90;;;19.20;67.40;20.20;101946.00;;;;4970347;28;20181;-44
2022/10/06 06:19:08;;;;;;;3.67;1.73;;;19.20;67.40;20.20;101953.00;;;;4970202;28;20657;-46
2022/10/06 06:21:33;;;;;;;3.73;2.10;;;19.20;67.40;20.20;101959.00;;;;4969203;28;20288;-44
2022/10/06 06:23:59;;;;;;;2.17;1.70;;;19.20;67.40;20.10;101967.00;;;;4969918;28;20206;-45
2022/10/06 06:26:30;;;;;;;3.70;1.93;;;19.20;67.20;20.10;101964.00;;;;4969987;28;20708;-46
2022/10/06 06:29:02;;;;;;;3.47;1.93;;;19.20;67.40;20.10;101968.00;;;;4969736;28;20207;-44
2022/10/06 06:31:30;;;;;;;2.60;1.90;;;19.20;67.30;20.10;101971.00;;;;4969827;28;20233;-43
2022/10/06 06:33:57;;;;;;;2.77;2.10;;;19.20;67.20;20.10;101968.00;;;;4970323;28;20619;-45
2022/10/06 06:36:34;;;;;;;4.63;2.00;;;19.10;67.00;20.10;101979.00;;;;4968796;28;20192;-43
2022/10/06 06:39:01;;;;;;;2.90;1.90;;;19.10;67.10;20.10;101985.00;;;;4970657;28;20251;-46
2022/10/06 06:41:29;;;;;;;5.03;2.00;;;19.10;67.20;20.10;101989.00;;;;4970220;28;20542;-45
2022/10/06 06:43:55;;;;;;;2.23;1.80;;;19.10;67.10;20.10;101993.00;;;;4970006;28;20165;-45
2022/10/06 06:46:25;;;;;;;3.10;2.10;;;19.10;67.10;20.10;101988.00;;;;4967749;28;20204;-47
2022/10/06 06:48:51;;;;;;;3.27;2.07;;;19.10;67.20;20.10;101995.00;;;;4969219;28;20208;-45
2022/10/06 06:51:21;;;;;;;3.13;2.10;;;19.10;67.20;20.10;101989.00;;;;4970472;28;20165;-45
2022/10/06 06:53:47;;;;;;;4.30;2.00;;;19.10;67.20;20.10;102004.00;;;;4968640;28;20528;-43
2022/10/06 06:56:13;;;;;;;4.87;1.90;;;19.10;67.10;20.10;102010.00;;;;4968984;28;20197;-42
2022/10/06 06:58:42;;;;;;;5.33;1.90;;;19.10;67.20;20.10;102007.00;;;;4970149;28;20219;-47
2022/10/06 07:01:13;;;;;;;4.47;2.10;;;19.10;67.30;20.10;102014.00;;;;4971186;28;20204;-43
2022/10/06 07:03:40;;;;;;;5.50;2.10;;;19.10;67.30;20.10;102018.00;;;;4969218;28;20165;-46
2022/10/06 07:06:12;;;;;;;3.73;1.87;;;19.10;67.30;20.10;102018.00;;;;4970044;28;20689;-45
2022/10/06 07:08:43;;;;;;;5.23;2.00;;;19.10;67.30;20.00;102011.00;;;;4966728;28;20878;-44
2022/10/06 07:11:18;;;;;;;5.13;1.80;;;19.00;67.30;20.10;102018.00;;;;4920506;28;20765;-46
2022/10/06 07:13:44;;;;;;;8.67;2.30;;;19.10;67.50;20.00;102029.00;;;;4973070;28;20173;-45
2022/10/06 07:27:16;;;;;;;6.63;2.17;;;19.00;67.70;20.00;102053.00;;;;4972520;28;20793;-45
2022/10/06 07:29:43;;;;;;;3.93;2.00;;;18.90;67.50;19.80;102055.00;;;;4973148;28;20451;-45
2022/10/06 07:32:09;;;;;;;4.40;1.80;;;19.00;67.60;19.90;102061.00;;;;4973458;28;20188;-44
2022/10/06 07:34:36;;;;;;;3.03;2.03;;;18.90;67.60;19.90;102070.00;;;;4973446;28;20169;-45
2022/10/06 07:37:02;;;;;;;3.17;1.83;;;18.90;67.60;19.90;102056.00;;;;4973541;28;20231;-46
2022/10/06 07:39:27;;;;;;;3.70;1.90;;;18.90;67.60;19.80;102077.00;;;;4974127;28;20206;-47
2022/10/06 07:41:53;;;;;;;3.37;2.00;;;18.90;67.70;19.90;102085.00;;;;4974736;28;20180;-44
2022/10/06 07:44:19;;;;;;;3.80;2.10;;;18.90;67.70;19.90;102091.00;;;;4973771;28;20170;-47
2022/10/06 07:46:44;;;;;;;6.47;2.03;;;18.90;67.80;19.90;102090.00;;;;4973605;28;20193;-46
2022/10/06 07:49:10;;;;;;;2.33;1.80;;;18.90;67.70;19.90;102095.00;;;;4973396;28;20201;-44
2022/10/06 07:51:36;;;;;;;2.70;2.00;;;18.90;67.80;19.90;102097.00;;;;4973552;28;20588;-45
2022/10/06 07:54:02;;;;;;;4.93;2.00;;;18.90;67.80;19.90;102098.00;;;;4973109;28;20708;-45
2022/10/06 07:56:28;;;;;;;3.10;2.00;;;18.90;67.80;19.90;102109.00;;;;4972863;28;20248;-45
2022/10/06 07:58:54;;;;;;;2.53;1.90;;;18.90;67.80;19.90;102102.00;;;;4973343;28;20185;-44
2022/10/06 08:01:20;;;;;;;3.73;2.00;;;18.80;67.70;19.90;102108.00;;;;4973351;28;20191;-44
2022/10/06 08:03:47;;;;;;;2.57;1.87;;;18.90;67.80;19.80;102111.00;;;;4973397;28;20279;-44
2022/10/06 08:06:14;;;;;;;2.57;1.77;;;18.80;67.70;19.80;102110.00;;;;4973439;28;20200;-45
2022/10/06 08:08:41;;;;;;;2.20;1.60;;;18.90;67.80;19.80;102114.00;;;;4973149;28;20209;-44
2022/10/06 08:11:07;;;;;;;2.73;1.90;;;18.80;67.80;19.80;102113.00;;;;4973806;28;20177;-44
2022/10/06 08:13:35;;;;;;;2.67;1.70;;;18.90;67.90;19.80;102120.00;;;;4973143;28;20185;-46
2022/10/06 08:16:18;;;;;;;3.80;1.70;;;18.90;68.00;19.80;102130.00;;;;4973560;28;20300;-44
2022/10/06 08:18:54;;;;;;;3.53;2.00;;;18.90;68.00;19.80;102132.00;;;;4973400;28;20157;-45
2022/10/06 08:21:28;;;;;;;3.63;2.10;;;18.90;68.00;19.80;102129.00;;;;4972762;28;20672;-46
2022/10/06 08:23:55;;;;;;;4.10;1.80;;;18.80;67.90;19.80;102133.00;;;;4973111;28;20661;-46
2022/10/06 08:26:21;;;;;;;2.47;1.67;;;18.80;68.00;19.80;102132.00;;;;4972665;28;20606;-44
2022/10/06 08:28:49;;;;;;;3.00;2.00;;;18.80;68.00;19.80;102131.00;;;;4973136;28;20207;-44
2022/10/06 08:31:16;;;;;;;2.43;1.97;;;18.90;68.20;19.80;102130.00;;;;4973503;28;20169;-45
2022/10/06 08:33:43;;;;;;;2.63;1.70;;;18.80;68.10;19.80;102120.00;;;;4972577;28;20201;-44
2022/10/06 08:36:11;;;;;;;2.33;1.60;;;18.80;68.10;19.80;102134.00;;;;4972700;28;20337;-46
2022/10/06 08:38:37;;;;;;;2.03;1.60;;;18.90;68.20;19.80;102130.00;;;;4972620;28;20260;-44
2022/10/06 08:41:22;;;;;;;2.57;1.80;;;18.80;68.10;19.80;102127.00;;;;4972740;28;20235;-46
2022/10/06 08:44:06;;;;;;;2.63;1.87;;;18.80;68.10;19.80;102136.00;;;;4971606;28;20165;-44
2022/10/06 08:46:48;;;;;;;1.80;1.63;;;18.90;68.20;19.70;102131.00;;;;4956207;28;20197;-44
2022/10/06 08:49:19;;;;;;;3.03;1.87;;;18.80;68.10;19.80;102133.00;;;;4956132;28;20189;-47
2022/10/06 08:51:56;;;;;;;2.50;1.60;;;18.80;68.10;19.80;102144.00;;;;4954929;28;20277;-45
2022/10/06 08:54:43;;;;;;;1.87;1.50;;;18.80;68.10;19.70;102146.00;;;;4971028;28;20157;-47
2022/10/06 08:57:20;;;;;;;2.70;1.80;;;18.80;68.10;19.70;102143.00;;;;4971192;28;20368;-45
2022/10/06 08:59:48;;;;;;;3.20;1.73;;;18.90;68.20;19.70;102143.00;;;;4971568;28;20165;-47
2022/10/06 09:02:31;;;;;;;2.60;1.87;;;18.80;68.10;19.70;102145.00;;;;4970626;28;20209;-46
2022/10/06 09:05:00;;;;;;;2.33;1.87;;;18.80;68.10;19.70;102157.00;;;;4971039;28;20236;-46
2022/10/06 09:08:04;;;;;;;1.93;1.57;;;18.80;68.10;19.70;102151.00;;;;4970748;28;20568;-46
2022/10/06 09:10:52;;;;;;;2.37;1.90;;;18.80;68.10;19.70;102155.00;;;;4971249;28;20231;-45
2022/10/06 09:13:27;;;;;;;3.20;1.97;;;18.80;68.10;19.70;102158.00;;;;4970704;28;20240;-45
2022/10/06 09:15:57;;;;;;;2.10;1.70;;;18.80;68.20;19.70;102164.00;;;;4955265;28;20266;-45
2022/10/06 09:18:50;;;;;;;2.73;1.90;;;18.80;68.30;19.70;102180.00;;;;4955207;28;20169;-45
2022/10/06 09:21:18;;;;;;;1.70;1.50;;;18.80;68.30;19.70;102174.00;;;;4970741;28;20184;-46
2022/10/06 09:23:52;;;;;;;2.63;1.90;;;18.80;68.50;19.70;102172.00;;;;4971486;28;20200;-45
2022/10/06 09:26:39;;;;;;;1.93;1.70;;;18.80;68.60;19.70;102182.00;;;;4971732;28;20197;-44
2022/10/06 09:29:05;;;;;;;2.47;1.70;;;18.80;68.60;19.70;102184.00;;;;4956694;28;20692;-44
2022/10/06 09:31:37;;;;;;;2.13;1.70;;;18.80;68.80;19.70;102192.00;;;;4971816;28;20165;-45
2022/10/06 09:34:24;;;;;;;2.17;1.63;;;18.90;68.90;19.70;102187.00;;;;4969767;28;20158;-45
2022/10/06 09:37:01;;;;;;;2.20;1.73;;;18.80;68.80;19.70;102193.00;;;;4956094;28;20204;-44
2022/10/06 09:39:32;;;;;;;1.50;1.40;;;18.80;68.90;19.70;102197.00;;;;4971572;28;20181;-46
2022/10/06 09:42:05;;;;;;;1.93;1.60;;;18.80;68.90;19.70;102192.00;;;;4971314;28;20158;-44
2022/10/06 09:44:58;;;;;;;1.70;1.60;;;18.80;68.90;19.70;102193.00;;;;4955025;28;20165;-44
2022/10/06 09:47:35;;;;;;;2.37;1.80;;;18.80;68.90;19.70;102206.00;;;;4970705;28;20525;-45
2022/10/06 09:50:26;;;;;;;2.10;1.63;;;18.80;69.00;19.70;102205.00;;;;4971565;28;20231;-43
2022/10/06 09:53:02;;;;;;;2.53;1.80;;;18.80;68.90;19.70;102201.00;;;;4971894;28;20161;-44
2022/10/06 09:55:53;;;;;;;3.17;1.80;;;18.80;68.90;19.70;102196.00;;;;4971664;28;20259;-45
2022/10/06 09:58:33;;;;;;;2.07;1.67;;;18.80;69.00;19.70;102208.00;;;;4970144;28;20725;-45
2022/10/06 10:01:07;;;;;;;2.20;1.80;;;18.80;69.00;19.70;102218.00;;;;4971316;28;20253;-44
2022/10/06 10:03:51;;;;;;;2.43;1.67;;;18.90;69.30;19.70;102208.00;;;;4954094;28;20164;-45
2022/10/06 10:06:33;;;;;;;1.97;1.77;;;18.80;69.10;19.70;102217.00;;;;4953837;28;20205;-44
2022/10/06 10:09:25;;;;;;;1.57;1.43;;;18.80;69.20;19.70;102211.00;;;;4969887;28;20234;-45
2022/10/06 10:12:23;;;;;;;2.07;1.63;;;18.80;69.20;19.70;102214.00;;;;4971042;28;20185;-44
2022/10/06 10:14:49;;;;;;;1.93;1.50;;;18.80;69.20;19.70;102214.00;;;;4970612;28;20201;-43
2022/10/06 10:17:19;;;;;;;2.33;1.87;;;18.90;69.40;19.70;102213.00;;;;4969673;28;20658;-46
2022/10/06 10:19:51;;;;;;;1.67;1.50;;;18.80;69.40;19.70;102202.00;;;;4969941;28;20188;-46
2022/10/06 10:22:34;;;;;;;1.80;1.57;;;18.80;69.20;19.70;102208.00;;;;4955807;28;20169;-45
2022/10/06 10:25:21;;;;;;;2.17;1.87;;;18.80;69.30;19.70;102208.00;;;;4957318;28;20156;-46
2022/10/06 10:28:03;;;;;;;2.53;1.80;;;18.90;69.40;19.70;102205.00;;;;4970576;28;20168;-44
2022/10/06 10:30:31;;;;;;;2.07;1.70;;;18.90;69.40;19.70;102195.00;;;;4934105;28;20181;-44
2022/10/06 10:33:11;;;;;;;2.20;1.67;;;18.90;69.30;19.70;102199.00;;;;4965023;28;20181;-44
2022/10/06 10:35:45;;;;;;;2.47;1.60;;;18.90;69.50;19.70;102195.00;;;;4944581;28;20203;-43
2022/10/06 10:38:20;;;;;;;3.20;1.90;;;18.90;69.70;19.70;102203.00;;;;4953639;28;20169;-44
2022/10/06 10:40:49;;;;;;;1.80;1.53;;;18.90;69.90;19.70;102198.00;;;;4969335;28;20188;-44
2022/10/06 10:43:33;;;;;;;2.67;1.70;;;19.00;70.10;19.70;102207.00;;;;4969541;28;20260;-44
2022/10/06 10:46:12;;;;;;;2.23;1.80;;;19.00;70.00;19.70;102205.00;;;;4970473;28;20197;-47
2022/10/06 10:48:45;;;;;;;2.53;1.70;;;19.00;70.00;19.70;102194.00;;;;4964953;28;20192;-45
2022/10/06 10:51:31;;;;;;;1.97;1.63;;;19.00;70.00;19.70;102198.00;;;;4933743;29;20173;-44
2022/10/06 10:54:30;;;;;;;1.87;1.57;;;19.00;70.00;19.70;102211.00;;;;4970483;28;20211;-47
2022/10/06 10:56:55;;;;;;;4.80;1.70;;;19.00;70.00;19.80;102214.00;;;;4988970;28;20203;-47
2022/10/06 10:59:28;;;;;;;3.67;1.70;;;19.00;70.70;19.80;102208.00;;;;4973103;28;20184;-44
2022/10/06 11:02:09;;;;;;;2.53;1.70;;;19.10;70.60;19.80;102202.00;;;;4988272;28;20646;-44
2022/10/06 11:04:38;;;;;;;5.60;1.90;;;19.10;70.60;19.80;102206.00;;;;4989269;28;20247;-45
2022/10/06 11:07:49;;;;;;;3.93;1.60;;;19.10;71.10;19.80;102209.00;;;;4988316;28;20674;-45
2022/10/06 11:10:50;;;;;;;5.60;1.90;;;19.20;70.90;19.80;102206.00;;;;4973446;28;20224;-46
2022/10/06 11:13:36;;;;;;;4.43;1.70;;;19.20;71.30;19.80;102204.00;;;;4988202;28;20203;-45